Search for airport 
image banner adimage banner adimage banner ad
image banner ad

1NV1 - Fallon Southwest Airpark

Located in Fallon, United States

ICAO - 1NV1, IATA -

Data provided by Airmate  

General information

Coordinates: N39°24'55" W118°50'12"
Elevation is 3950 feet MSL.
Magnetic variation is 16° East
View others Airports in Nevada

Operational data

Special qualification required
Current time UTC:
Current local time:
METAR: KNFL 130056Z 34008KT 10SM FEW080 FEW170 32/01 A2990 RMK AO2 SLP098 ACSL VC S T03220006
TAF: TAF KNFL 1223/1323 VRB06KT 9999 FEW080 FEW200 QNH2986INS LAST NO AMDS AFT 1301 NEXT 1407 T15/1313Z T34/1323Z FS30015
View NOTAMs / SUP AIP / TFR affecting this airport [VIEW]
Communications frequencies: [VIEW]

Runways:

RWY identifierQFULength (ft)Width (ft)SurfaceLDA (ft)
17265025GRAVEL
35265025GRAVEL

Airport contact information

Address: Fallon United States

Satellite view of 1NV1